YM Venus — 9HCB8 — position and weather

sailwx.info

Track history (hours):
 
Tides and Currents Weather Stations Pressure Air Temp Water Temp Dewpoint Dewpoint Depression Visibility Wind Speed Wind Dir Waves Ship Positions

YM Venus

Last reported at 2015-Aug-02 06:33 UTC. Time now 2015-Aug-03 02:37 UTC.
Position N 37°11' E 015°18'.

Length 105 m; draft 5.1 m.

Type: Tanker. MMSI: 215826000.

Date/timePositionNaut miles runAvg speedWind from/ knotsBaromVisibWave heightAir tempDewpointWater temp
2015-Aug-02 06:33N 37°11' E 015°18'9 9.4
2015-Aug-02 05:33N 37°10' E 015°29'1010.1
2015-Aug-02 04:33N 37°09' E 015°42'1010.4
2015-Aug-02 03:33N 37°07' E 015°55'1010.5
2015-Aug-02 02:33N 37°05' E 016°08'1010.4
2015-Aug-02 01:33N 37°03' E 016°21'1010.1
2015-Aug-02 00:33N 37°02' E 016°33'1110.1
2015-Aug-01 23:28N 37°00' E 016°47'1010.4
2015-Aug-01 22:33N 36°59' E 016°58'2510.3
2015-Aug-01 20:10N 36°56' E 017°29'2110.4
2015-Aug-01 18:08N 36°53' E 017°55'910.5
2015-Aug-01 17:19N 36°51' E 018°06'25910.9
2015-Jul-31 17:33N 36°43' E 023°29'1212.2
2015-Jul-31 16:33N 36°54' E 023°36'1312.4
2015-Jul-31 15:32N 37°04' E 023°45'1313.1
2015-Jul-31 14:33N 37°15' E 023°53'  
2015-Jul-26 04:29N 37°50' E 025°45'1212.7
2015-Jul-26 03:33N 37°38' E 025°46'1212.1
2015-Jul-26 02:33N 37°26' E 025°46'1212.2
2015-Jul-26 01:33N 37°21' E 025°60'1212.3
2015-Jul-26 00:33N 37°15' E 026°14'1010.1
2015-Jul-25 23:33N 37°11' E 026°25'1312.5
2015-Jul-25 22:33N 37°06' E 026°40'1212.2
2015-Jul-25 21:33N 36°54' E 026°44'1212.4
2015-Jul-25 20:33N 36°42' E 026°46'1312.4
2015-Jul-25 19:33N 36°30' E 026°50'1412.5
2015-Jul-25 18:27N 36°19' E 027°01'2612.4
2015-Jul-25 16:21N 35°60' E 027°23'1011.9
2015-Jul-25 15:33N 35°53' E 027°31'1111.2
2015-Jul-25 14:33N 35°47' E 027°43'24412.2
2015-Jul-24 18:34N 33°52' E 032°04'1212.1
2015-Jul-24 17:33N 33°46' E 032°17'1211.9
2015-Jul-24 16:32N 33°40' E 032°30'1212.0
2015-Jul-24 15:31N 33°34' E 032°43'1212.1
2015-Jul-24 14:30N 33°28' E 032°55'1312.4
2015-Jul-24 13:25N 33°22' E 033°10'1112.6
2015-Jul-24 12:33N 33°17' E 033°21'1312.3
2015-Jul-24 11:31N 33°11' E 033°35'1212.0
2015-Jul-24 10:33N 33°05' E 033°47'1211.7
2015-Jul-24 09:33N 33°03' E 034°00'1211.5
2015-Jul-24 08:33N 33°00' E 034°14'1211.7
2015-Jul-24 07:33N 32°58' E 034°27'1212.1
2015-Jul-24 06:34N 32°56' E 034°41'1312.5
2015-Jul-24 05:31N 32°52' E 034°57'6 0.7
2015-Jul-23 21:10N 32°49' E 035°02'0 0.0
2015-Jul-23 11:25N 32°49' E 035°02'  
Track history (hours):
 
Tides and Currents Weather Stations Pressure Air Temp Water Temp Dewpoint Dewpoint Depression Visibility Wind Speed Wind Dir Waves Ship Positions

YM Venus

Last reported at 2015-Aug-02 06:33 UTC. Time now 2015-Aug-03 02:37 UTC.
Position N 37°11' E 015°18'.

Length 105 m; draft 5.1 m.

Type: Tanker. MMSI: 215826000.

Date/timePositionNaut miles runAvg speedWind from/ knotsBaromVisibWave heightAir tempDewpointWater temp
2015-Aug-02 06:33N 37°11' E 015°18'9 9.4
2015-Aug-02 05:33N 37°10' E 015°29'1010.1
2015-Aug-02 04:33N 37°09' E 015°42'1010.4
2015-Aug-02 03:33N 37°07' E 015°55'1010.5
2015-Aug-02 02:33N 37°05' E 016°08'1010.4
2015-Aug-02 01:33N 37°03' E 016°21'1010.1
2015-Aug-02 00:33N 37°02' E 016°33'1110.1
2015-Aug-01 23:28N 37°00' E 016°47'1010.4
2015-Aug-01 22:33N 36°59' E 016°58'2510.3
2015-Aug-01 20:10N 36°56' E 017°29'2110.4
2015-Aug-01 18:08N 36°53' E 017°55'910.5
2015-Aug-01 17:19N 36°51' E 018°06'25910.9
2015-Jul-31 17:33N 36°43' E 023°29'1212.2
2015-Jul-31 16:33N 36°54' E 023°36'1312.4
2015-Jul-31 15:32N 37°04' E 023°45'1313.1
2015-Jul-31 14:33N 37°15' E 023°53'  
2015-Jul-26 04:29N 37°50' E 025°45'1212.7
2015-Jul-26 03:33N 37°38' E 025°46'1212.1
2015-Jul-26 02:33N 37°26' E 025°46'1212.2
2015-Jul-26 01:33N 37°21' E 025°60'1212.3
2015-Jul-26 00:33N 37°15' E 026°14'1010.1
2015-Jul-25 23:33N 37°11' E 026°25'1312.5
2015-Jul-25 22:33N 37°06' E 026°40'1212.2
2015-Jul-25 21:33N 36°54' E 026°44'1212.4
2015-Jul-25 20:33N 36°42' E 026°46'1312.4
2015-Jul-25 19:33N 36°30' E 026°50'1412.5
2015-Jul-25 18:27N 36°19' E 027°01'2612.4
2015-Jul-25 16:21N 35°60' E 027°23'1011.9
2015-Jul-25 15:33N 35°53' E 027°31'1111.2
2015-Jul-25 14:33N 35°47' E 027°43'24412.2
2015-Jul-24 18:34N 33°52' E 032°04'1212.1
2015-Jul-24 17:33N 33°46' E 032°17'1211.9
2015-Jul-24 16:32N 33°40' E 032°30'1212.0
2015-Jul-24 15:31N 33°34' E 032°43'1212.1
2015-Jul-24 14:30N 33°28' E 032°55'1312.4
2015-Jul-24 13:25N 33°22' E 033°10'1112.6
2015-Jul-24 12:33N 33°17' E 033°21'1312.3
2015-Jul-24 11:31N 33°11' E 033°35'1212.0
2015-Jul-24 10:33N 33°05' E 033°47'1211.7
2015-Jul-24 09:33N 33°03' E 034°00'1211.5
2015-Jul-24 08:33N 33°00' E 034°14'1211.7
2015-Jul-24 07:33N 32°58' E 034°27'1212.1
2015-Jul-24 06:34N 32°56' E 034°41'1312.5
2015-Jul-24 05:31N 32°52' E 034°57'6 0.7
2015-Jul-23 21:10N 32°49' E 035°02'0 0.0
2015-Jul-23 11:25N 32°49' E 035°02'  

Dump ship's entire track history